Time;durP1;ratioP1;P1;durP2;ratioP2;P2;SDS_P1;SDS_P2;PMS_P1;PMS_P2;Temp;Humidity;BMP_temperature;BMP_pressure;BME280_temperature;BME280_humidity;BME280_pressure;Samples;Min_cycle;Max_cycle;Signal;HPM_P1;HPM_P2
2024/01/27 00:00:17;;;;;;;;;;;1.40;99.90;;;;;;4955042;28;19955;-85
2024/01/27 00:02:43;;;;;;;;;;;1.20;99.90;;;;;;4956703;28;20044;-85
2024/01/27 00:05:08;;;;;;;;;;;1.20;99.90;;;;;;4957018;28;19939;-82
2024/01/27 00:07:34;;;;;;;;;;;1.20;99.90;;;;;;4961723;28;20090;-84
2024/01/27 00:10:00;;;;;;;;;;;1.40;99.90;;;;;;4956379;28;19962;-84
2024/01/27 00:12:25;;;;;;;;;;;1.40;99.90;;;;;;4960268;28;20396;-83
2024/01/27 00:14:51;;;;;;;;;;;1.30;99.90;;;;;;4951938;28;19944;-84
2024/01/27 00:17:16;;;;;;;;;;;1.40;99.90;;;;;;4949319;28;20406;-84
2024/01/27 00:19:42;;;;;;;;;;;1.30;99.90;;;;;;4939792;28;19957;-84
2024/01/27 00:22:08;;;;;;;;;;;1.30;99.90;;;;;;4945919;28;20015;-84
2024/01/27 00:24:33;;;;;;;;;;;1.30;99.90;;;;;;4947216;28;20229;-84
2024/01/27 00:26:59;;;;;;;;;;;1.30;99.90;;;;;;4960998;28;19945;-85
2024/01/27 00:29:25;;;;;;;;;;;1.40;99.90;;;;;;4957290;28;20421;-85
2024/01/27 00:31:50;;;;;;;;;;;1.30;99.90;;;;;;4932234;28;19960;-84
2024/01/27 00:34:16;;;;;;;;;;;1.20;99.90;;;;;;4934873;28;19947;-86
2024/01/27 00:36:48;;;;;;;;;;;1.10;99.90;;;;;;4937785;28;20201;-84
2024/01/27 00:39:15;;;;;;;;;;;1.00;99.90;;;;;;4937304;28;19945;-84
2024/01/27 00:41:40;;;;;;;;;;;1.00;99.90;;;;;;4941315;28;20477;-85
2024/01/27 00:44:06;;;;;;;;;;;1.10;99.90;;;;;;4936967;28;19953;-85
2024/01/27 00:46:32;;;;;;;;;;;1.10;99.90;;;;;;4943248;28;19949;-85
2024/01/27 00:48:57;;;;;;;;;;;1.20;99.90;;;;;;4940466;28;19957;-83
2024/01/27 00:51:23;;;;;;;;;;;1.30;99.90;;;;;;4942075;28;19960;-85
2024/01/27 00:53:48;;;;;;;;;;;1.20;99.90;;;;;;4940454;28;20059;-85
2024/01/27 00:56:14;;;;;;;;;;;1.10;99.90;;;;;;4947715;28;19991;-85
2024/01/27 00:58:39;;;;;;;;;;;1.00;99.90;;;;;;4949595;28;20048;-83
2024/01/27 01:01:05;;;;;;;;;;;1.00;99.90;;;;;;4946097;28;20026;-85
2024/01/27 01:03:30;;;;;;;;;;;0.80;99.90;;;;;;4935305;28;20358;-84
2024/01/27 01:05:56;;;;;;;;;;;0.80;99.90;;;;;;4930519;28;20358;-83
2024/01/27 01:08:21;;;;;;;;;;;0.70;99.90;;;;;;4934005;28;19943;-84
2024/01/27 01:10:47;;;;;;;;;;;0.60;99.90;;;;;;4934820;28;20469;-83
2024/01/27 01:13:13;;;;;;;;;;;0.50;99.90;;;;;;4935683;28;20578;-85
2024/01/27 01:15:39;;;;;;;;;;;0.60;99.90;;;;;;4936097;28;19949;-85
2024/01/27 01:18:04;;;;;;;;;;;0.70;99.90;;;;;;4937208;28;19988;-85
2024/01/27 01:20:31;;;;;;;;;;;0.60;99.90;;;;;;4892825;28;21620;-84
2024/01/27 01:22:57;;;;;;;;;;;0.50;99.90;;;;;;4908900;28;19999;-83
2024/01/27 01:25:22;;;;;;;;;;;0.40;99.90;;;;;;4925045;28;19950;-83
2024/01/27 01:27:49;;;;;;;;;;;0.40;99.90;;;;;;4933920;28;19970;-83
2024/01/27 01:30:15;;;;;;;;;;;0.40;99.90;;;;;;4938762;28;20413;-83
2024/01/27 01:32:40;;;;;;;;;;;0.50;99.90;;;;;;4946290;28;19969;-85
2024/01/27 01:35:06;;;;;;;;;;;0.60;99.90;;;;;;4962577;28;19943;-85
2024/01/27 01:37:31;;;;;;;;;;;0.70;99.90;;;;;;4957965;28;19954;-84
2024/01/27 01:39:57;;;;;;;;;;;0.70;99.90;;;;;;4962965;28;19990;-85
2024/01/27 01:42:24;;;;;;;;;;;0.60;99.90;;;;;;4952339;28;20366;-84
2024/01/27 01:44:51;;;;;;;;;;;0.50;99.90;;;;;;4937575;28;19947;-84
2024/01/27 01:47:17;;;;;;;;;;;0.50;99.90;;;;;;4933047;28;19942;-84
2024/01/27 01:49:43;;;;;;;;;;;0.40;99.90;;;;;;4931216;28;20089;-81
2024/01/27 01:52:09;;;;;;;;;;;0.40;99.90;;;;;;4937658;28;20477;-83
2024/01/27 01:54:34;;;;;;;;;;;0.30;99.90;;;;;;4931636;28;20626;-85
2024/01/27 01:57:00;;;;;;;;;;;0.40;99.90;;;;;;4935142;28;20010;-83
2024/01/27 01:59:26;;;;;;;;;;;0.40;99.90;;;;;;4937233;28;19997;-83
2024/01/27 02:01:51;;;;;;;;;;;0.50;99.90;;;;;;4936310;28;19937;-84
2024/01/27 02:04:17;;;;;;;;;;;0.40;99.90;;;;;;4928403;28;20311;-83
2024/01/27 02:06:42;;;;;;;;;;;0.30;99.90;;;;;;4937141;28;19950;-83
2024/01/27 02:09:09;;;;;;;;;;;0.30;99.90;;;;;;4937183;28;20322;-85
2024/01/27 02:11:35;;;;;;;;;;;0.30;99.90;;;;;;4940211;28;20014;-85
2024/01/27 02:14:00;;;;;;;;;;;0.30;99.90;;;;;;4937955;28;19945;-84
2024/01/27 02:16:26;;;;;;;;;;;0.50;99.90;;;;;;4936448;28;20083;-83
2024/01/27 02:18:51;;;;;;;;;;;0.50;99.90;;;;;;4940406;28;19957;-83
2024/01/27 02:21:17;;;;;;;;;;;0.20;99.90;;;;;;4940001;28;19963;-84
2024/01/27 02:23:42;;;;;;;;;;;0.10;99.90;;;;;;4943229;28;19963;-84
2024/01/27 02:26:08;;;;;;;;;;;0.10;99.90;;;;;;4938557;28;20243;-83
2024/01/27 02:28:35;;;;;;;;;;;0.10;99.90;;;;;;4940196;28;20393;-82
2024/01/27 02:31:00;;;;;;;;;;;0.10;99.90;;;;;;4949894;28;20119;-85
2024/01/27 02:33:26;;;;;;;;;;;0.20;99.90;;;;;;4944494;28;20314;-83
2024/01/27 02:35:51;;;;;;;;;;;0.20;99.90;;;;;;4952318;28;19936;-82
2024/01/27 02:38:17;;;;;;;;;;;0.30;99.90;;;;;;4953040;28;20310;-85
2024/01/27 02:40:42;;;;;;;;;;;0.10;99.90;;;;;;4952324;28;20432;-84
2024/01/27 02:43:08;;;;;;;;;;;0.10;99.90;;;;;;4954818;28;20025;-85
2024/01/27 02:45:33;;;;;;;;;;;0.10;99.90;;;;;;4956210;28;19996;-85
2024/01/27 02:47:59;;;;;;;;;;;0.10;99.90;;;;;;4957771;28;20024;-83
2024/01/27 02:50:24;;;;;;;;;;;0.00;99.90;;;;;;4960108;28;20398;-85
2024/01/27 02:52:50;;;;;;;;;;;0.10;99.90;;;;;;4955768;28;19946;-84
2024/01/27 02:55:15;;;;;;;;;;;0.10;99.90;;;;;;4956701;28;19948;-85
2024/01/27 02:57:41;;;;;;;;;;;0.00;99.90;;;;;;4956000;28;20001;-84
2024/01/27 03:00:07;;;;;;;;;;;-0.20;99.90;;;;;;4957980;28;19955;-85
2024/01/27 03:02:33;;;;;;;;;;;-0.20;99.90;;;;;;4945801;28;19956;-84
2024/01/27 03:04:58;;;;;;;;;;;-0.30;99.90;;;;;;4950950;28;19952;-84
2024/01/27 03:07:24;;;;;;;;;;;-0.30;99.90;;;;;;4949951;28;19944;-83
2024/01/27 03:09:49;;;;;;;;;;;-0.40;99.90;;;;;;4960415;28;20036;-83
2024/01/27 03:12:15;;;;;;;;;;;-0.50;99.90;;;;;;4958349;28;21372;-84
2024/01/27 03:14:42;;;;;;;;;;;-0.50;99.90;;;;;;4954161;28;20089;-83
2024/01/27 03:17:07;;;;;;;;;;;-0.60;99.90;;;;;;4952386;28;19955;-84
2024/01/27 03:19:53;;;;;;;;;;;-0.50;99.90;;;;;;4949423;28;19985;-84
2024/01/27 03:22:18;;;;;;;;;;;-0.50;99.90;;;;;;4955475;28;20395;-83
2024/01/27 03:24:44;;;;;;;;;;;-0.40;99.90;;;;;;4948803;28;19973;-84
2024/01/27 03:27:10;;;;;;;;;;;-0.30;99.90;;;;;;4956331;28;19940;-83
2024/01/27 03:29:35;;;;;;;;;;;-0.10;99.90;;;;;;4955158;28;19994;-84
2024/01/27 03:32:01;;;;;;;;;;;-0.10;99.90;;;;;;4950052;28;20271;-84
2024/01/27 03:34:28;;;;;;;;;;;-0.10;99.90;;;;;;4948131;28;20009;-84
2024/01/27 03:36:53;;;;;;;;;;;-0.10;99.90;;;;;;4950866;28;20552;-84
2024/01/27 03:39:19;;;;;;;;;;;0.00;99.90;;;;;;4962571;28;19944;-83
2024/01/27 03:41:44;;;;;;;;;;;0.00;99.90;;;;;;4965808;28;19961;-85
2024/01/27 03:44:10;;;;;;;;;;;0.10;99.90;;;;;;4968377;28;19954;-84
2024/01/27 03:46:37;;;;;;;;;;;0.10;99.90;;;;;;4961092;28;19951;-84
2024/01/27 03:49:02;;;;;;;;;;;0.10;99.90;;;;;;4959634;28;19951;-84
2024/01/27 03:51:28;;;;;;;;;;;0.00;99.90;;;;;;4982064;28;19972;-82
2024/01/27 03:53:54;;;;;;;;;;;0.00;99.90;;;;;;4986859;28;19933;-84
2024/01/27 03:56:20;;;;;;;;;;;-0.10;99.90;;;;;;4986892;28;19949;-84
2024/01/27 03:58:45;;;;;;;;;;;-0.10;99.90;;;;;;4986132;28;19959;-83
2024/01/27 04:01:11;;;;;;;;;;;-0.30;99.90;;;;;;4957319;28;19944;-83
2024/01/27 04:03:36;;;;;;;;;;;-0.40;99.90;;;;;;4958924;28;20088;-84
2024/01/27 04:06:02;;;;;;;;;;;-0.30;99.90;;;;;;4956508;28;19955;-83
2024/01/27 04:08:29;;;;;;;;;;;-0.30;99.90;;;;;;4961200;28;20429;-83
2024/01/27 04:10:55;;;;;;;;;;;-0.30;99.90;;;;;;4954945;28;20390;-84
2024/01/27 04:13:20;;;;;;;;;;;-0.20;99.90;;;;;;4954793;28;19961;-84
2024/01/27 04:15:46;;;;;;;;;;;-0.20;99.90;;;;;;4959880;28;20055;-84
2024/01/27 04:18:11;;;;;;;;;;;-0.40;99.90;;;;;;4961609;28;19991;-85
2024/01/27 04:20:37;;;;;;;;;;;-0.50;99.90;;;;;;4963669;28;20519;-84
2024/01/27 04:23:03;;;;;;;;;;;-0.60;99.90;;;;;;4957221;28;20049;-85
2024/01/27 04:25:28;;;;;;;;;;;-0.50;99.90;;;;;;4953440;28;20473;-84
2024/01/27 04:27:54;;;;;;;;;;;-0.40;99.90;;;;;;4955673;28;20560;-84
2024/01/27 04:30:19;;;;;;;;;;;-0.30;99.90;;;;;;4962205;28;19949;-85
2024/01/27 04:32:45;;;;;;;;;;;-0.40;99.90;;;;;;4963031;28;20515;-83
2024/01/27 04:35:11;;;;;;;;;;;-0.50;99.90;;;;;;4962510;28;20127;-83
2024/01/27 04:37:37;;;;;;;;;;;-0.50;99.90;;;;;;4941033;28;19985;-82
2024/01/27 04:40:04;;;;;;;;;;;-0.50;99.90;;;;;;4918416;28;20937;-83
2024/01/27 04:42:29;;;;;;;;;;;-0.50;99.90;;;;;;4941873;28;20042;-84
2024/01/27 04:44:55;;;;;;;;;;;-0.50;99.90;;;;;;4944858;28;20038;-84
2024/01/27 04:47:20;;;;;;;;;;;-0.50;99.90;;;;;;4950305;28;19951;-83
2024/01/27 04:49:46;;;;;;;;;;;-0.70;99.90;;;;;;4963826;28;20607;-84
2024/01/27 04:52:12;;;;;;;;;;;-0.80;99.90;;;;;;4963752;28;20341;-84
2024/01/27 04:54:37;;;;;;;;;;;-0.90;99.90;;;;;;4964925;28;20413;-84
2024/01/27 04:57:03;;;;;;;;;;;-0.80;99.90;;;;;;4962858;28;20017;-84
2024/01/27 04:59:28;;;;;;;;;;;-0.70;99.90;;;;;;4954204;28;19955;-83
2024/01/27 05:01:54;;;;;;;;;;;-0.70;99.90;;;;;;4957744;28;20351;-84
2024/01/27 05:04:19;;;;;;;;;;;-0.60;99.90;;;;;;4953261;28;19949;-83
2024/01/27 05:06:46;;;;;;;;;;;-0.50;99.90;;;;;;4953994;28;20312;-84
2024/01/27 05:09:12;;;;;;;;;;;-0.60;99.90;;;;;;4961404;28;20438;-84
2024/01/27 05:11:37;;;;;;;;;;;-0.60;99.90;;;;;;4963609;28;19952;-84
2024/01/27 05:14:03;;;;;;;;;;;-0.60;99.90;;;;;;4952243;28;19946;-83
2024/01/27 05:16:28;;;;;;;;;;;-0.60;99.90;;;;;;4952952;28;20211;-84
2024/01/27 05:18:54;;;;;;;;;;;-0.70;99.90;;;;;;4951220;28;20522;-84
2024/01/27 05:21:19;;;;;;;;;;;-1.00;99.90;;;;;;4958778;28;20034;-84
2024/01/27 05:23:45;;;;;;;;;;;-0.90;99.90;;;;;;4962240;28;19956;-84
2024/01/27 05:26:11;;;;;;;;;;;-1.10;99.90;;;;;;4958447;28;20035;-83
2024/01/27 05:28:38;;;;;;;;;;;-1.10;99.90;;;;;;4959046;28;20011;-84
2024/01/27 05:31:06;;;;;;;;;;;-1.10;99.90;;;;;;4960798;28;20350;-84
2024/01/27 05:33:31;;;;;;;;;;;-1.10;99.90;;;;;;4957147;28;19961;-84
2024/01/27 05:35:57;;;;;;;;;;;-1.00;99.90;;;;;;4958149;28;19940;-84
2024/01/27 05:38:22;;;;;;;;;;;-1.00;99.90;;;;;;4956175;28;19954;-83
2024/01/27 05:40:50;;;;;;;;;;;-1.10;99.90;;;;;;4964916;28;20003;-83
2024/01/27 05:43:16;;;;;;;;;;;-1.10;99.90;;;;;;4962636;28;19950;-83
2024/01/27 05:45:41;;;;;;;;;;;-1.10;99.90;;;;;;4960703;28;19970;-82
2024/01/27 05:48:07;;;;;;;;;;;-1.20;99.90;;;;;;4963421;28;19947;-83
2024/01/27 05:50:34;;;;;;;;;;;-1.30;99.90;;;;;;4956788;28;19988;-83
2024/01/27 05:52:59;;;;;;;;;;;-1.30;99.90;;;;;;4961344;28;20636;-83
2024/01/27 05:55:25;;;;;;;;;;;-1.10;99.90;;;;;;4957380;28;19946;-83
2024/01/27 05:57:50;;;;;;;;;;;-1.00;99.90;;;;;;4961156;28;20026;-84
2024/01/27 06:00:16;;;;;;;;;;;-0.80;99.90;;;;;;4954183;28;19980;-84
2024/01/27 06:02:41;;;;;;;;;;;-0.80;99.90;;;;;;4953423;28;19952;-83
2024/01/27 06:05:08;;;;;;;;;;;-0.70;99.90;;;;;;4959039;28;20030;-84
2024/01/27 06:07:34;;;;;;;;;;;-0.70;99.90;;;;;;4955289;28;19955;-83
2024/01/27 06:09:59;;;;;;;;;;;-0.60;99.90;;;;;;4988317;28;19960;-83
2024/01/27 06:12:25;;;;;;;;;;;-0.60;99.90;;;;;;4983871;28;19965;-84
2024/01/27 06:14:50;;;;;;;;;;;-0.60;99.90;;;;;;4978852;28;19963;-83
2024/01/27 06:17:16;;;;;;;;;;;-0.80;99.90;;;;;;4960983;28;20237;-83
2024/01/27 06:19:42;;;;;;;;;;;-0.80;99.90;;;;;;4953177;28;20013;-83
2024/01/27 06:22:07;;;;;;;;;;;-0.70;99.90;;;;;;4953012;28;20146;-83
2024/01/27 06:24:33;;;;;;;;;;;-0.70;99.90;;;;;;4960450;28;20014;-83
2024/01/27 06:26:58;;;;;;;;;;;-0.60;99.90;;;;;;4960376;28;20046;-83
2024/01/27 06:29:26;;;;;;;;;;;-0.50;99.90;;;;;;4954946;28;20388;-84
2024/01/27 06:31:52;;;;;;;;;;;-0.50;99.90;;;;;;4942365;28;19942;-83
2024/01/27 06:34:18;;;;;;;;;;;-0.40;99.90;;;;;;4938221;28;19955;-82
2024/01/27 06:36:43;;;;;;;;;;;-0.60;99.90;;;;;;4936113;28;20054;-83
2024/01/27 06:39:09;;;;;;;;;;;-0.60;99.90;;;;;;4937566;28;20297;-84
2024/01/27 06:41:35;;;;;;;;;;;-0.50;99.90;;;;;;4938096;28;20340;-84
2024/01/27 06:44:00;;;;;;;;;;;-0.50;99.90;;;;;;4948674;28;19951;-84
2024/01/27 06:46:26;;;;;;;;;;;-0.50;99.90;;;;;;4941482;28;19950;-83
2024/01/27 06:48:51;;;;;;;;;;;-0.50;99.90;;;;;;4941000;28;19953;-83
2024/01/27 06:51:17;;;;;;;;;;;-0.50;99.90;;;;;;4939132;28;19946;-84
2024/01/27 06:53:42;;;;;;;;;;;-0.50;99.90;;;;;;4932496;28;19964;-83
2024/01/27 06:56:08;;;;;;;;;;;-0.40;99.90;;;;;;4928096;28;20558;-82
2024/01/27 06:58:34;;;;;;;;;;;-0.40;99.90;;;;;;4932962;28;20351;-83
2024/01/27 07:01:00;;;;;;;;;;;-0.40;99.90;;;;;;4938569;28;19956;-83
2024/01/27 07:03:26;;;;;;;;;;;-0.50;99.90;;;;;;4940064;28;19947;-83
2024/01/27 07:05:51;;;;;;;;;;;-0.60;99.90;;;;;;4943542;28;20310;-83
2024/01/27 07:08:17;;;;;;;;;;;-0.60;99.90;;;;;;4942968;28;20249;-82
2024/01/27 07:10:43;;;;;;;;;;;-0.60;99.90;;;;;;4945821;28;20014;-83
2024/01/27 07:13:08;;;;;;;;;;;-0.50;99.90;;;;;;4947212;28;19956;-83
2024/01/27 07:15:34;;;;;;;;;;;-0.50;99.90;;;;;;4942160;28;19943;-84
2024/01/27 07:17:59;;;;;;;;;;;-0.50;99.90;;;;;;4941088;28;19993;-84
2024/01/27 07:20:25;;;;;;;;;;;-0.40;99.90;;;;;;4940653;28;20437;-85
2024/01/27 07:22:50;;;;;;;;;;;-0.40;99.90;;;;;;4941514;28;19949;-83
2024/01/27 07:25:16;;;;;;;;;;;-0.50;99.90;;;;;;4941365;28;20383;-84
2024/01/27 07:27:41;;;;;;;;;;;-0.40;99.90;;;;;;4940568;28;19966;-84
2024/01/27 07:30:09;;;;;;;;;;;-0.30;99.90;;;;;;4945770;28;19983;-83
2024/01/27 07:32:34;;;;;;;;;;;-0.20;99.90;;;;;;4963541;28;19946;-84
2024/01/27 07:35:00;;;;;;;;;;;-0.20;99.90;;;;;;4958555;28;19957;-82
2024/01/27 07:37:25;;;;;;;;;;;0.00;99.90;;;;;;4949580;28;19946;-83
2024/01/27 07:39:51;;;;;;;;;;;0.10;99.90;;;;;;4960605;28;20113;-83
2024/01/27 07:42:16;;;;;;;;;;;0.10;99.90;;;;;;4962746;28;19941;-84
2024/01/27 07:44:42;;;;;;;;;;;0.10;99.90;;;;;;4958906;28;20138;-84
2024/01/27 07:47:08;;;;;;;;;;;0.20;99.90;;;;;;4968040;28;20026;-82
2024/01/27 07:49:34;;;;;;;;;;;0.30;99.90;;;;;;4961097;28;19991;-83
2024/01/27 07:51:59;;;;;;;;;;;0.40;99.90;;;;;;4970040;28;20433;-83
2024/01/27 07:54:25;;;;;;;;;;;0.40;99.90;;;;;;4962963;28;19946;-83
2024/01/27 07:56:50;;;;;;;;;;;0.40;99.90;;;;;;4963152;28;19960;-83
2024/01/27 07:59:16;;;;;;;;;;;0.40;99.90;;;;;;4964039;28;19941;-83
2024/01/27 08:01:41;;;;;;;;;;;0.50;99.90;;;;;;4947246;28;20197;-82
2024/01/27 08:04:07;;;;;;;;;;;0.40;99.90;;;;;;4953054;28;20074;-83
2024/01/27 08:06:32;;;;;;;;;;;0.50;99.90;;;;;;4947820;28;19970;-82
2024/01/27 08:08:59;;;;;;;;;;;0.60;99.90;;;;;;4960575;28;19939;-84
2024/01/27 08:11:25;;;;;;;;;;;0.50;99.90;;;;;;4968041;28;19974;-84
2024/01/27 08:13:50;;;;;;;;;;;0.60;99.90;;;;;;4960640;28;19949;-83
2024/01/27 08:16:16;;;;;;;;;;;0.70;99.90;;;;;;4963132;28;19946;-85
2024/01/27 08:18:44;;;;;;;;;;;0.80;99.90;;;;;;4954338;28;19942;-83
2024/01/27 08:21:09;;;;;;;;;;;1.00;99.90;;;;;;4958190;28;19952;-83
2024/01/27 08:23:35;;;;;;;;;;;1.10;99.90;;;;;;4959824;28;20008;-83
2024/01/27 08:26:00;;;;;;;;;;;1.20;99.90;;;;;;4980531;28;19960;-85
2024/01/27 08:28:26;;;;;;;;;;;1.30;99.90;;;;;;4984141;28;19941;-84
2024/01/27 08:30:52;;;;;;;;;;;1.40;99.90;;;;;;4987317;28;19937;-82
2024/01/27 08:33:17;;;;;;;;;;;1.50;99.90;;;;;;4981670;28;20024;-83
2024/01/27 08:35:43;;;;;;;;;;;1.60;99.90;;;;;;4961136;28;19954;-84
2024/01/27 08:38:09;;;;;;;;;;;1.70;99.90;;;;;;4960361;28;20408;-84
2024/01/27 08:40:35;;;;;;;;;;;1.70;99.90;;;;;;4958233;28;19948;-82
2024/01/27 08:43:01;;;;;;;;;;;1.70;99.90;;;;;;4960134;28;19981;-83
2024/01/27 08:45:27;;;;;;;;;;;1.70;99.90;;;;;;4958992;28;19986;-84
2024/01/27 08:47:52;;;;;;;;;;;1.70;99.90;;;;;;4962056;28;20017;-83
2024/01/27 08:50:18;;;;;;;;;;;1.70;99.90;;;;;;4945085;28;19947;-82
2024/01/27 08:52:44;;;;;;;;;;;1.80;99.90;;;;;;4948907;28;20022;-83
2024/01/27 08:55:09;;;;;;;;;;;1.90;99.90;;;;;;4958128;28;20506;-85
2024/01/27 08:57:35;;;;;;;;;;;2.00;99.90;;;;;;4958226;28;19947;-84
2024/01/27 09:00:00;;;;;;;;;;;2.00;99.90;;;;;;4955432;28;19997;-83
2024/01/27 09:02:26;;;;;;;;;;;1.90;99.90;;;;;;4957428;28;20315;-83
2024/01/27 09:04:51;;;;;;;;;;;1.90;99.90;;;;;;4954750;28;19984;-83
2024/01/27 09:07:17;;;;;;;;;;;2.10;99.90;;;;;;4953685;28;20438;-83
2024/01/27 09:09:43;;;;;;;;;;;2.20;99.90;;;;;;4967913;28;19950;-82
2024/01/27 09:12:08;;;;;;;;;;;2.40;99.90;;;;;;4961199;28;19973;-83
2024/01/27 09:14:34;;;;;;;;;;;2.60;99.90;;;;;;4961048;28;19953;-83
2024/01/27 09:17:00;;;;;;;;;;;2.70;99.90;;;;;;4962523;28;19981;-83
2024/01/27 09:19:27;;;;;;;;;;;2.80;99.90;;;;;;4961246;28;19959;-83
2024/01/27 09:21:54;;;;;;;;;;;2.90;99.90;;;;;;4948030;28;19958;-83
2024/01/27 09:24:19;;;;;;;;;;;3.10;99.90;;;;;;4948860;28;19963;-85
2024/01/27 09:26:45;;;;;;;;;;;3.20;99.90;;;;;;4953259;28;20021;-84
2024/01/27 09:29:11;;;;;;;;;;;3.30;99.90;;;;;;4954066;28;19995;-83
2024/01/27 09:31:36;;;;;;;;;;;3.30;99.90;;;;;;4949980;28;19949;-85
2024/01/27 09:34:02;;;;;;;;;;;3.20;99.90;;;;;;4958137;28;19954;-83
2024/01/27 09:36:27;;;;;;;;;;;3.20;99.90;;;;;;4956190;28;19955;-83
2024/01/27 09:38:54;;;;;;;;;;;3.20;99.90;;;;;;4962213;28;19980;-84
2024/01/27 09:41:21;;;;;;;;;;;3.30;99.90;;;;;;4954270;28;20055;-85
2024/01/27 09:43:47;;;;;;;;;;;3.40;99.90;;;;;;4950925;28;19941;-84
2024/01/27 09:46:13;;;;;;;;;;;3.40;99.90;;;;;;4957853;28;19957;-84
2024/01/27 09:48:39;;;;;;;;;;;3.50;99.90;;;;;;4951241;28;19953;-84
2024/01/27 09:51:05;;;;;;;;;;;3.60;99.90;;;;;;4957119;28;20002;-84
2024/01/27 09:53:30;;;;;;;;;;;3.70;99.90;;;;;;4945190;28;20262;-84
2024/01/27 09:55:58;;;;;;;;;;;3.80;99.90;;;;;;4953154;28;20011;-85
2024/01/27 09:58:27;;;;;;;;;;;3.80;99.90;;;;;;4950035;28;19959;-85
2024/01/27 10:00:55;;;;;;;;;;;3.90;99.90;;;;;;4960197;28;19946;-85
2024/01/27 10:03:23;;;;;;;;;;;3.90;99.90;;;;;;4956229;28;19955;-85
2024/01/27 10:05:49;;;;;;;;;;;3.80;99.90;;;;;;4950887;28;20451;-83
2024/01/27 10:08:15;;;;;;;;;;;3.90;99.90;;;;;;4934152;28;20405;-83
2024/01/27 10:10:40;;;;;;;;;;;3.80;99.90;;;;;;4945258;28;20217;-83
2024/01/27 10:13:06;;;;;;;;;;;4.00;99.90;;;;;;4946083;28;20028;-84
2024/01/27 10:15:31;;;;;;;;;;;4.40;99.90;;;;;;4956588;28;19976;-83
2024/01/27 10:18:07;;;;;;;;;;;4.60;99.90;;;;;;4957909;28;19956;-83
2024/01/27 10:20:33;;;;;;;;;;;4.80;99.90;;;;;;4954436;28;19986;-83
2024/01/27 10:22:59;;;;;;;;;;;5.20;99.90;;;;;;4947691;28;19961;-83
2024/01/27 10:25:25;;;;;;;;;;;5.40;99.90;;;;;;4948085;28;19950;-83
2024/01/27 10:27:55;;;;;;;;;;;5.60;99.90;;;;;;4961524;28;20078;-84
2024/01/27 10:30:20;;;;;;;;;;;5.60;99.90;;;;;;4959666;28;19939;-82
2024/01/27 10:32:57;;;;;;;;;;;5.60;99.90;;;;;;4936781;28;20485;-84
2024/01/27 10:35:22;;;;;;;;;;;5.50;99.90;;;;;;4938958;28;20556;-82
2024/01/27 10:37:51;;;;;;;;;;;5.50;99.90;;;;;;4940475;28;19943;-84
2024/01/27 10:40:17;;;;;;;;;;;5.60;99.90;;;;;;4935787;28;20310;-83
2024/01/27 10:42:44;;;;;;;;;;;5.80;99.90;;;;;;4937017;28;20083;-83
2024/01/27 10:45:10;;;;;;;;;;;6.10;99.90;;;;;;4940070;28;20331;-85
2024/01/27 10:47:36;;;;;;;;;;;6.40;99.90;;;;;;4958154;28;19964;-83
2024/01/27 10:50:02;;;;;;;;;;;6.90;99.90;;;;;;4964768;28;19958;-84
2024/01/27 10:52:29;;;;;;;;;;;7.30;99.90;;;;;;4963428;28;19960;-84
2024/01/27 10:54:59;;;;;;;;;;;7.70;99.90;;;;;;4968624;28;19942;-84
2024/01/27 10:57:25;;;;;;;;;;;8.10;99.90;;;;;;4944931;28;19986;-83
2024/01/27 10:59:52;;;;;;;;;;;8.40;99.90;;;;;;4936726;28;19966;-83
2024/01/27 11:02:18;;;;;;;;;;;8.80;99.90;;;;;;4930450;28;20521;-83
2024/01/27 11:04:44;;;;;;;;;;;9.10;99.90;;;;;;4929513;28;20137;-84
2024/01/27 11:07:11;;;;;;;;;;;9.50;99.90;;;;;;4943264;28;20570;-84
2024/01/27 11:09:37;;;;;;;;;;;10.00;99.90;;;;;;4941884;28;19950;-85
2024/01/27 11:12:03;;;;;;;;;;;10.50;99.90;;;;;;4942566;28;20395;-84
2024/01/27 11:14:29;;;;;;;;;;;11.00;99.90;;;;;;4939583;28;19970;-84
2024/01/27 11:16:56;;;;;;;;;;;11.20;99.90;;;;;;4934973;28;19955;-83
2024/01/27 11:19:22;;;;;;;;;;;11.30;99.90;;;;;;4932296;28;19941;-82
2024/01/27 11:21:48;;;;;;;;;;;11.00;99.90;;;;;;4939474;28;19944;-82
2024/01/27 11:24:14;;;;;;;;;;;10.80;99.90;;;;;;4934977;28;20310;-82
2024/01/27 11:26:40;;;;;;;;;;;10.80;99.90;;;;;;4940867;28;19966;-83
2024/01/27 11:29:06;;;;;;;;;;;10.60;99.90;;;;;;4938815;28;20328;-83
2024/01/27 11:31:31;;;;;;;;;;;10.20;99.90;;;;;;4953466;28;20510;-83
2024/01/27 11:33:58;;;;;;;;;;;9.70;99.90;;;;;;4964663;28;19957;-82
2024/01/27 11:36:24;;;;;;;;;;;9.40;99.90;;;;;;4965798;28;19946;-82
2024/01/27 11:38:50;;;;;;;;;;;9.20;99.90;;;;;;4965288;28;20338;-84
2024/01/27 11:41:24;;;;;;;;;;;9.50;99.90;;;;;;4963908;28;19962;-83
2024/01/27 11:43:51;;;;;;;;;;;10.20;99.90;;;;;;4955059;28;19953;-85
2024/01/27 11:46:17;;;;;;;;;;;10.60;99.90;;;;;;4967100;28;20424;-84
2024/01/27 11:48:42;;;;;;;;;;;11.10;99.90;;;;;;4961533;28;20079;-84
2024/01/27 11:51:11;;;;;;;;;;;11.20;99.90;;;;;;4966421;28;19958;-82
2024/01/27 11:53:37;;;;;;;;;;;10.90;99.90;;;;;;4968991;28;19957;-84
2024/01/27 11:56:04;;;;;;;;;;;10.90;99.90;;;;;;4964386;28;19981;-84
2024/01/27 11:58:30;;;;;;;;;;;10.70;99.90;;;;;;4958251;28;19949;-84
2024/01/27 12:00:56;;;;;;;;;;;10.60;99.90;;;;;;4963854;28;20636;-85
2024/01/27 12:03:21;;;;;;;;;;;10.50;99.90;;;;;;4968387;28;19957;-84
2024/01/27 12:05:47;;;;;;;;;;;10.30;99.90;;;;;;4960460;28;19950;-83
2024/01/27 12:08:12;;;;;;;;;;;10.20;99.90;;;;;;4964900;28;19946;-83
2024/01/27 12:10:38;;;;;;;;;;;10.30;99.90;;;;;;4968025;28;19954;-83
2024/01/27 12:13:04;;;;;;;;;;;10.50;99.90;;;;;;4951609;28;20008;-83
2024/01/27 12:15:29;;;;;;;;;;;10.50;99.90;;;;;;4952949;28;19988;-83
2024/01/27 12:17:55;;;;;;;;;;;10.90;99.90;;;;;;4951345;28;19951;-83
2024/01/27 12:20:22;;;;;;;;;;;10.90;99.90;;;;;;4946662;28;19953;-83
2024/01/27 12:22:49;;;;;;;;;;;10.60;99.90;;;;;;4950447;28;19955;-82
2024/01/27 12:25:15;;;;;;;;;;;10.30;99.90;;;;;;4951935;28;19950;-82
2024/01/27 12:27:41;;;;;;;;;;;10.40;99.90;;;;;;4955748;28;20164;-83
2024/01/27 12:30:07;;;;;;;;;;;10.20;99.90;;;;;;4964851;28;20404;-82
2024/01/27 12:32:33;;;;;;;;;;;9.90;99.90;;;;;;4961098;28;19991;-84
2024/01/27 12:35:00;;;;;;;;;;;9.70;99.90;;;;;;4958729;28;19945;-84
2024/01/27 12:37:25;;;;;;;;;;;10.10;99.90;;;;;;4956927;28;20468;-83
2024/01/27 12:39:51;;;;;;;;;;;10.80;99.90;;;;;;4961532;28;20045;-83
2024/01/27 12:42:17;;;;;;;;;;;11.20;99.90;;;;;;4954147;28;20471;-83
2024/01/27 12:44:43;;;;;;;;;;;11.70;99.90;;;;;;4955070;28;19990;-82
2024/01/27 12:47:09;;;;;;;;;;;11.40;99.90;;;;;;4963299;28;19944;-84
2024/01/27 12:49:35;;;;;;;;;;;11.40;99.90;;;;;;4955854;28;20132;-85
2024/01/27 12:52:01;;;;;;;;;;;11.10;99.90;;;;;;4954314;28;20360;-84
2024/01/27 12:54:29;;;;;;;;;;;10.70;99.90;;;;;;4973915;28;23325;-83
2024/01/27 12:56:56;;;;;;;;;;;10.80;99.90;;;;;;4945592;28;20018;-84
2024/01/27 12:59:23;;;;;;;;;;;10.90;99.90;;;;;;4957276;28;20048;-84
2024/01/27 13:01:49;;;;;;;;;;;11.00;99.90;;;;;;4956284;28;19958;-83
2024/01/27 13:04:14;;;;;;;;;;;10.90;99.90;;;;;;4962237;28;20302;-83
2024/01/27 13:06:40;;;;;;;;;;;10.90;99.90;;;;;;4958243;28;20356;-84
2024/01/27 13:09:06;;;;;;;;;;;11.10;99.90;;;;;;4950184;28;19962;-83
2024/01/27 13:11:31;;;;;;;;;;;11.30;99.90;;;;;;4966763;28;19955;-83
2024/01/27 13:13:58;;;;;;;;;;;11.30;99.90;;;;;;4986249;28;19965;-83
2024/01/27 13:16:23;;;;;;;;;;;11.00;99.90;;;;;;4983196;28;19982;-84
2024/01/27 13:18:49;;;;;;;;;;;10.90;99.90;;;;;;4975416;28;20065;-83
2024/01/27 13:21:14;;;;;;;;;;;10.80;99.90;;;;;;4977873;28;20298;-82
2024/01/27 13:23:42;;;;;;;;;;;10.80;99.90;;;;;;4968937;28;19956;-83
2024/01/27 13:26:08;;;;;;;;;;;11.00;99.90;;;;;;4958813;28;19982;-83
2024/01/27 13:28:33;;;;;;;;;;;10.90;99.90;;;;;;4953720;28;20556;-83
2024/01/27 13:30:59;;;;;;;;;;;10.80;99.90;;;;;;4948473;28;19965;-84
2024/01/27 13:33:25;;;;;;;;;;;10.50;99.90;;;;;;4957227;28;20261;-84
2024/01/27 13:35:51;;;;;;;;;;;10.70;99.90;;;;;;4955257;28;20061;-84
2024/01/27 13:38:23;;;;;;;;;;;11.00;99.90;;;;;;4958863;28;19961;-84
2024/01/27 13:40:49;;;;;;;;;;;11.10;99.90;;;;;;4961604;28;19977;-84
2024/01/27 13:43:14;;;;;;;;;;;10.70;99.90;;;;;;4953885;28;20038;-84
2024/01/27 13:45:40;;;;;;;;;;;10.30;99.90;;;;;;4951589;28;20348;-84
2024/01/27 13:48:06;;;;;;;;;;;10.10;99.90;;;;;;4955752;28;20491;-83
2024/01/27 13:50:31;;;;;;;;;;;10.20;99.90;;;;;;4954359;28;19960;-84
2024/01/27 13:52:58;;;;;;;;;;;10.30;99.90;;;;;;4955379;28;19995;-84
2024/01/27 13:55:23;;;;;;;;;;;10.10;99.90;;;;;;4955292;28;19955;-83
2024/01/27 13:57:49;;;;;;;;;;;10.20;99.90;;;;;;4958339;28;20361;-84
2024/01/27 14:00:15;;;;;;;;;;;10.60;99.90;;;;;;4953039;28;20021;-84
2024/01/27 14:02:42;;;;;;;;;;;11.10;99.90;;;;;;4963986;28;20004;-83
2024/01/27 14:05:07;;;;;;;;;;;11.50;99.90;;;;;;4958049;28;20107;-84
2024/01/27 14:07:33;;;;;;;;;;;11.30;99.90;;;;;;4958442;28;20065;-83
2024/01/27 14:09:59;;;;;;;;;;;11.10;99.90;;;;;;4959482;28;20557;-84
2024/01/27 14:12:25;;;;;;;;;;;11.10;99.90;;;;;;4956110;28;19951;-84
2024/01/27 14:14:51;;;;;;;;;;;10.80;99.90;;;;;;4958458;28;20565;-85